Amidon, ND

2:18 AM MST on November 24, 2014 (GMT -0700)
RAWS SAND CREEK ND US | Change Station
CLOSE
Current Station
Personal Weather Station
Location: Amidon, ND
Elevation: 2748 ft
Nearby Weather Stations

Elev 2748 ft 46.55 °N, 103.52 °W | Updated 48 minutes ago

Partly Cloudy
Partly Cloudy
15 °F
Feels Like 2 °F
N
11
Wind Variable Wind from NW
Gusts 15.0 mph

Today
High -- | Low -- °F
--% Chance of Precip.
Yesterday
High -- | Low -- °F
Precip. -- in
7:07 AM 4:12 PM
Waxing Crescent, 4% visible
Pressure 29.87 in
Visibility 10.0 miles
Clouds Clear
Windchill 2 °F
Dew Point 12 °F
Humidity 86%
Rainfall 0.00 in
Snow Depth Not available.
UV 0 out of 12
Pollen .10 out of 12
Air Quality Not available.
Flu Activity Not available.
METAR KDIK 240856Z AUTO 30011KT 10SM CLR M10/M12 A2975 RMK AO2 SLP114 I1000 I3000 T11001122 53004

More Conditions Fewer Conditions

Pressure 29.87 in
Visibility 10.0 miles
Clouds Clear
Windchill 2 °F
Dew Point 12 °F
Humidity 86%
Rainfall 0.00 in
Snow Depth Not available.
UV 0 out of 12
Pollen .10 out of 12
Air Quality Not available.
Flu Activity Not available.
METAR KDIK 240856Z AUTO 30011KT 10SM CLR M10/M12 A2975 RMK AO2 SLP114 I1000 I3000 T11001122 53004

More Conditions Fewer Conditions

10-Day Weather Forecast

Almanac

Astronomy

Nov. 24, 2014 Rise Set
Actual Time
Civil Twilight
Nautical Twilight
Astronomical Twilight
Moon
Length of Visible Light
Length of Day
Tomorrow will be .
, % of the Moon is Illuminated

Today's Extremes

State Highs State Lows

Community

WunderPhotos

Upload Photos

1,773,294 photos uploaded!

WunderBlogs® & News

Nearby

Air Quality

  Air Quality AQ Index Pollutant
Not available.

Snow Depth

Station Depth Elevation

Earthquake Activity

City Distance Mag. Time & Date
Minimum magnitude displayed is 2.5.

Coastal Water Temperatures

Place Temperature

Nearby Weather Stations